createdAt,value
2022-11-01T00:03:04.873Z,15.89
2022-11-01T00:10:07.007Z,15.89
2022-11-01T00:17:08.599Z,15.83
2022-11-01T00:24:10.243Z,15.83
2022-11-01T00:31:12.914Z,15.94
2022-11-01T00:38:15.711Z,15.89
2022-11-01T00:45:18.053Z,15.81
2022-11-01T00:52:19.634Z,15.86
2022-11-01T00:59:21.180Z,15.81
2022-11-01T01:06:22.750Z,15.80
2022-11-01T01:13:24.403Z,15.65
2022-11-01T01:20:26.048Z,15.67
2022-11-01T01:27:27.602Z,15.60
2022-11-01T01:34:29.158Z,15.66
2022-11-01T01:41:49.290Z,15.60
2022-11-01T01:48:53.661Z,15.59
2022-11-01T01:56:09.929Z,15.62
2022-11-01T02:03:11.494Z,15.65
2022-11-01T02:10:14.471Z,15.63
2022-11-01T02:17:30.503Z,15.60
2022-11-01T02:25:14.067Z,15.66
2022-11-01T02:32:29.079Z,15.53
2022-11-01T02:39:33.201Z,15.50
2022-11-01T02:46:55.884Z,15.44
2022-11-01T02:54:01.677Z,15.44
2022-11-01T03:01:03.366Z,15.46
2022-11-01T03:08:09.789Z,15.41
2022-11-01T03:15:20.838Z,15.34
2022-11-01T03:22:28.384Z,15.29
2022-11-01T03:29:30.748Z,15.21
2022-11-01T03:36:35.411Z,15.12
2022-11-01T03:43:36.977Z,15.10
2022-11-01T03:50:40.149Z,15.10
2022-11-01T03:57:42.748Z,15.14
2022-11-01T04:04:44.302Z,15.09
2022-11-01T04:11:45.871Z,15.08
2022-11-01T04:19:05.818Z,15.05
2022-11-01T04:26:07.650Z,15.03
2022-11-01T04:33:09.470Z,14.95
2022-11-01T04:40:11.486Z,14.90
2022-11-01T04:47:13.049Z,14.85
2022-11-01T04:54:14.634Z,14.83
2022-11-01T05:01:16.361Z,14.76
2022-11-01T05:08:17.975Z,14.75
2022-11-01T05:15:19.512Z,14.67
2022-11-01T05:22:21.079Z,14.66
2022-11-01T05:29:32.938Z,14.57
2022-11-01T05:36:35.041Z,14.56
2022-11-01T05:43:36.597Z,14.55
2022-11-01T05:50:38.189Z,14.49
2022-11-01T05:57:40.662Z,14.38
2022-11-01T06:04:42.241Z,14.41
2022-11-01T06:11:43.793Z,14.30
2022-11-01T06:18:45.384Z,14.42
2022-11-01T06:25:47.027Z,14.38
2022-11-01T06:32:48.633Z,14.42
2022-11-01T06:39:50.512Z,14.44
2022-11-01T06:46:53.688Z,14.44
2022-11-01T06:53:55.318Z,14.58
2022-11-01T07:00:57.028Z,14.65
2022-11-01T07:07:59.104Z,14.65
2022-11-01T07:15:00.821Z,14.70
2022-11-01T07:22:02.377Z,14.84
2022-11-01T07:29:04.133Z,14.78
2022-11-01T07:36:05.968Z,14.81
2022-11-01T07:43:07.655Z,14.85
2022-11-01T07:50:09.382Z,15.06
2022-11-01T07:57:10.932Z,15.12
2022-11-01T08:04:12.514Z,15.17
2022-11-01T08:11:14.079Z,15.27
2022-11-01T08:18:16.244Z,15.42
2022-11-01T08:25:18.828Z,15.43
2022-11-01T08:32:23.570Z,15.51
2022-11-01T08:39:26.184Z,15.65
2022-11-01T08:46:27.765Z,15.80
2022-11-01T08:53:29.345Z,15.94
2022-11-01T09:00:30.951Z,16.16
2022-11-01T09:07:34.546Z,16.41
2022-11-01T09:14:36.185Z,16.65
2022-11-01T09:21:37.746Z,16.90
2022-11-01T09:28:39.318Z,17.14
2022-11-01T09:35:40.903Z,17.28
2022-11-01T09:42:43.758Z,17.43
2022-11-01T09:49:47.283Z,17.51
2022-11-01T09:57:06.130Z,17.67
2022-11-01T10:04:39.880Z,17.85
2022-11-01T10:12:02.027Z,17.86
2022-11-01T10:19:17.359Z,17.87
2022-11-01T10:26:25.636Z,17.91
2022-11-01T10:33:41.365Z,17.82
2022-11-01T10:41:36.828Z,17.85
2022-11-01T10:48:42.157Z,17.82
2022-11-01T10:55:51.293Z,17.88
2022-11-01T11:02:57.413Z,18.04
2022-11-01T11:17:46.118Z,18.30
2022-11-01T11:24:47.714Z,18.82
2022-11-01T11:31:55.084Z,19.33
2022-11-01T11:38:56.704Z,19.04
2022-11-01T11:46:10.309Z,19.16
2022-11-01T11:53:20.210Z,19.15
2022-11-01T12:00:23.374Z,19.15
2022-11-01T12:07:32.468Z,19.00
2022-11-01T12:14:36.625Z,19.04
2022-11-01T12:21:40.269Z,18.94
2022-11-01T12:29:00.218Z,18.95
2022-11-01T12:36:01.831Z,18.97
2022-11-01T12:43:14.492Z,18.95
2022-11-01T12:50:19.713Z,18.86
2022-11-01T12:57:21.272Z,18.87
2022-11-01T13:04:44.818Z,18.87
2022-11-01T13:12:12.532Z,19.01
2022-11-01T13:19:18.793Z,19.07
2022-11-01T13:26:27.774Z,19.20
2022-11-01T13:34:02.078Z,19.35
2022-11-01T13:41:03.555Z,19.44
2022-11-01T13:48:40.542Z,19.44
2022-11-01T13:55:45.304Z,19.47
2022-11-01T14:02:55.480Z,19.36
2022-11-01T14:09:57.051Z,19.24
2022-11-01T14:17:20.128Z,19.18
2022-11-01T14:24:24.335Z,19.15
2022-11-01T14:31:27.576Z,19.41
2022-11-01T14:38:35.873Z,19.53
2022-11-01T14:45:42.253Z,19.49
2022-11-01T14:52:47.114Z,19.46
2022-11-01T14:59:48.691Z,19.36
2022-11-01T15:06:50.710Z,19.35
2022-11-01T15:13:53.282Z,19.33
2022-11-01T15:20:55.731Z,19.22
2022-11-01T15:27:57.356Z,19.13
2022-11-01T15:35:00.272Z,19.12
2022-11-01T15:42:01.829Z,18.97
2022-11-01T15:49:07.285Z,18.92
2022-11-01T15:56:18.002Z,18.76
2022-11-01T16:03:27.585Z,18.66
2022-11-01T16:10:31.952Z,18.62
2022-11-01T16:17:35.229Z,18.54
2022-11-01T16:24:36.819Z,18.53
2022-11-01T16:31:41.844Z,18.45
2022-11-01T16:38:44.040Z,18.32
2022-11-01T16:45:45.678Z,18.26
2022-11-01T16:52:47.308Z,18.22
2022-11-01T16:59:50.909Z,18.19
2022-11-01T17:06:52.550Z,18.09
2022-11-01T17:13:54.114Z,18.06
2022-11-01T17:20:55.706Z,18.01
2022-11-01T17:27:57.298Z,17.97
2022-11-01T17:34:58.835Z,17.95
2022-11-01T17:42:00.478Z,17.94
2022-11-01T17:49:02.033Z,17.87
2022-11-01T17:56:03.603Z,17.82
2022-11-01T18:03:05.185Z,17.71
2022-11-01T18:10:17.556Z,17.63
2022-11-01T18:17:26.740Z,17.60
2022-11-01T18:24:37.985Z,17.52
2022-11-01T18:31:40.843Z,17.51
2022-11-01T18:39:03.777Z,17.47
2022-11-01T18:46:29.907Z,17.35
2022-11-01T18:53:32.360Z,17.31
2022-11-01T19:00:33.910Z,17.26
2022-11-01T19:08:04.867Z,17.22
2022-11-01T19:15:11.567Z,17.09
2022-11-01T19:22:38.617Z,16.97
2022-11-01T19:29:40.183Z,16.88
2022-11-01T19:36:42.123Z,16.78
2022-11-01T19:43:43.842Z,16.73
2022-11-01T19:50:46.089Z,16.69
2022-11-01T19:57:47.635Z,16.63
2022-11-01T20:04:56.302Z,16.56
2022-11-01T20:11:57.891Z,16.47
2022-11-01T20:18:59.500Z,16.40
2022-11-01T20:26:01.863Z,16.28
2022-11-01T20:33:03.579Z,16.19
2022-11-01T20:40:06.208Z,16.08
2022-11-01T20:47:07.809Z,15.99
2022-11-01T20:54:12.751Z,15.92
2022-11-01T21:01:17.780Z,15.85
2022-11-01T21:08:24.236Z,15.76
2022-11-01T21:15:25.659Z,15.66
2022-11-01T21:22:28.475Z,15.57
2022-11-01T21:29:30.098Z,15.55
2022-11-01T21:36:39.477Z,15.50
2022-11-01T21:43:42.250Z,15.42
2022-11-01T21:50:43.820Z,15.34
2022-11-01T21:57:45.390Z,15.26
2022-11-01T22:04:46.965Z,15.20
2022-11-01T22:11:48.535Z,15.12
2022-11-01T22:18:50.147Z,15.09
2022-11-01T22:25:51.804Z,15.06
2022-11-01T22:32:53.390Z,15.03
2022-11-01T22:39:54.971Z,15.01
2022-11-01T22:47:00.331Z,14.96
2022-11-01T22:54:01.906Z,14.91
2022-11-01T23:01:26.031Z,14.88
2022-11-01T23:08:32.941Z,14.83
2022-11-01T23:15:34.528Z,14.75
2022-11-01T23:22:36.408Z,14.72
2022-11-01T23:29:37.952Z,14.67
2022-11-01T23:36:39.526Z,14.63
2022-11-01T23:43:41.294Z,14.54
2022-11-01T23:50:42.887Z,14.55
2022-11-01T23:57:44.450Z,14.53
